createdAt,value
2018-11-05T00:02:14.393Z,22.33
2018-11-05T00:04:43.222Z,22.07
2018-11-05T00:07:11.946Z,22.47
2018-11-05T00:09:40.885Z,19.63
2018-11-05T00:12:09.629Z,27.33
2018-11-05T00:14:38.329Z,22.23
2018-11-05T00:17:07.045Z,22.70
2018-11-05T00:19:35.743Z,25.70
2018-11-05T00:22:04.641Z,21.10
2018-11-05T00:24:33.463Z,25.87
2018-11-05T00:27:02.163Z,21.97
2018-11-05T00:29:31.113Z,22.30
2018-11-05T00:31:59.831Z,23.27
2018-11-05T00:34:28.682Z,21.93
2018-11-05T00:36:57.424Z,22.10
2018-11-05T00:39:26.142Z,22.17
2018-11-05T00:41:54.854Z,24.05
2018-11-05T00:44:23.563Z,24.40
2018-11-05T00:46:52.284Z,27.50
2018-11-05T00:49:20.993Z,25.40
2018-11-05T00:51:49.713Z,22.27
2018-11-05T00:54:18.412Z,21.83
2018-11-05T00:56:47.118Z,19.27
2018-11-05T00:59:16.021Z,20.40
2018-11-05T01:01:44.758Z,21.93
2018-11-05T01:07:10.344Z,22.13
2018-11-05T01:09:39.065Z,17.73
2018-11-05T01:12:07.791Z,20.13
2018-11-05T01:14:36.523Z,20.40
2018-11-05T01:17:05.816Z,18.43
2018-11-05T01:19:34.541Z,18.97
2018-11-05T01:22:03.312Z,17.03
2018-11-05T01:24:32.037Z,19.93
2018-11-05T01:27:01.010Z,19.87
2018-11-05T01:29:29.708Z,19.10
2018-11-05T01:31:58.447Z,18.87
2018-11-05T01:34:27.160Z,17.87
2018-11-05T01:36:55.912Z,19.87
2018-11-05T01:39:25.024Z,18.70
2018-11-05T01:41:53.751Z,19.37
2018-11-05T01:44:22.592Z,17.80
2018-11-05T01:46:51.317Z,19.43
2018-11-05T01:49:20.040Z,18.20
2018-11-05T01:51:48.749Z,18.10
2018-11-05T01:54:17.452Z,17.63
2018-11-05T01:56:46.160Z,22.87
2018-11-05T01:59:14.873Z,19.57
2018-11-05T02:01:43.599Z,18.83
2018-11-05T02:04:12.304Z,16.35
2018-11-05T02:06:41.175Z,17.83
2018-11-05T02:09:10.472Z,19.20
2018-11-05T02:11:39.340Z,17.87
2018-11-05T02:14:08.168Z,17.97
2018-11-05T02:16:37.015Z,17.73
2018-11-05T02:19:06.155Z,18.67
2018-11-05T02:21:35.036Z,19.80
2018-11-05T02:24:03.828Z,19.13
2018-11-05T02:26:32.502Z,16.90
2018-11-05T02:29:01.205Z,18.63
2018-11-05T02:31:30.052Z,19.43
2018-11-05T02:33:59.245Z,18.33
2018-11-05T02:36:28.340Z,20.93
2018-11-05T02:38:57.444Z,19.63
2018-11-05T02:41:26.167Z,18.50
2018-11-05T02:43:54.857Z,18.67
2018-11-05T02:46:23.576Z,21.63
2018-11-05T02:48:52.279Z,18.37
2018-11-05T02:51:21.187Z,19.30
2018-11-05T02:53:49.905Z,20.60
2018-11-05T02:56:18.615Z,19.27
2018-11-05T02:58:47.326Z,21.30
2018-11-05T03:01:16.041Z,18.23
2018-11-05T03:03:44.754Z,18.43
2018-11-05T03:06:13.630Z,19.17
2018-11-05T03:08:42.476Z,23.70
2018-11-05T03:11:11.304Z,19.37
2018-11-05T03:13:40.040Z,20.72
2018-11-05T03:16:08.983Z,19.27
2018-11-05T03:18:37.708Z,18.10
2018-11-05T03:21:06.640Z,20.23
2018-11-05T03:23:35.370Z,19.60
2018-11-05T03:26:04.580Z,21.00
2018-11-05T03:28:33.283Z,20.40
2018-11-05T03:31:02.174Z,18.40
2018-11-05T03:33:30.885Z,18.10
2018-11-05T03:35:59.611Z,20.53
2018-11-05T03:38:28.301Z,20.90
2018-11-05T03:40:57.003Z,20.27
2018-11-05T03:43:25.925Z,19.17
2018-11-05T03:45:54.636Z,18.73
2018-11-05T03:48:23.336Z,19.42
2018-11-05T03:50:52.392Z,22.17
2018-11-05T03:53:21.116Z,18.33
2018-11-05T03:55:49.925Z,20.47
2018-11-05T03:58:18.579Z,19.00
2018-11-05T04:00:47.328Z,19.37
2018-11-05T04:03:16.067Z,22.37
2018-11-05T04:05:44.826Z,21.63
2018-11-05T04:08:13.525Z,19.67
2018-11-05T04:10:42.500Z,22.23
2018-11-05T04:13:11.273Z,22.50
2018-11-05T04:15:40.063Z,21.13
2018-11-05T04:18:08.697Z,22.55
2018-11-05T04:20:37.407Z,22.90
2018-11-05T04:23:06.126Z,25.37
2018-11-05T04:25:35.101Z,23.70
2018-11-05T04:28:04.931Z,23.10
2018-11-05T04:30:33.827Z,22.27
2018-11-05T04:33:02.532Z,22.47
2018-11-05T04:35:31.253Z,24.40
2018-11-05T04:38:00.036Z,26.03
2018-11-05T04:40:28.744Z,25.80
2018-11-05T04:42:57.456Z,26.67
2018-11-05T04:45:26.176Z,21.77
2018-11-05T04:47:54.898Z,24.25
2018-11-05T04:50:23.640Z,24.53
2018-11-05T04:52:52.592Z,23.27
2018-11-05T04:55:21.313Z,23.57
2018-11-05T04:57:56.318Z,22.50
2018-11-05T05:00:25.072Z,24.37
2018-11-05T05:02:53.775Z,24.25
2018-11-05T05:05:22.482Z,25.08
2018-11-05T05:07:51.756Z,21.50
2018-11-05T05:10:20.499Z,23.98
2018-11-05T05:12:49.208Z,24.33
2018-11-05T05:15:17.933Z,22.85
2018-11-05T05:17:46.804Z,23.50
2018-11-05T05:20:16.619Z,21.85
2018-11-05T05:22:45.723Z,21.80
2018-11-05T05:25:14.486Z,24.13
2018-11-05T05:27:43.188Z,24.23
2018-11-05T05:30:15.130Z,24.30
2018-11-05T05:32:44.426Z,21.40
2018-11-05T05:35:13.145Z,23.60
2018-11-05T05:37:42.435Z,26.30
2018-11-05T05:40:11.169Z,24.77
2018-11-05T05:42:40.604Z,22.13
2018-11-05T05:45:10.589Z,20.00
2018-11-05T05:47:39.396Z,23.07
2018-11-05T05:50:10.837Z,24.07
2018-11-05T05:52:39.760Z,21.70
2018-11-05T05:55:08.848Z,21.37
2018-11-05T05:57:37.561Z,20.70
2018-11-05T06:00:08.773Z,20.95
2018-11-05T06:02:37.757Z,22.37
2018-11-05T06:05:07.276Z,19.97
2018-11-05T06:07:36.408Z,21.03
2018-11-05T06:10:05.264Z,27.70
2018-11-05T06:12:33.968Z,26.10
2018-11-05T06:15:02.707Z,24.53
2018-11-05T06:17:31.748Z,22.37
2018-11-05T06:20:00.411Z,25.03
2018-11-05T06:22:29.119Z,27.37
2018-11-05T06:24:58.384Z,22.47
2018-11-05T06:27:27.108Z,25.37
2018-11-05T06:29:55.824Z,24.50
2018-11-05T06:32:24.540Z,20.60
2018-11-05T06:34:53.271Z,22.47
2018-11-05T06:37:22.259Z,22.62
2018-11-05T06:39:50.973Z,20.23
2018-11-05T06:42:19.792Z,23.98
2018-11-05T06:44:48.557Z,24.07
2018-11-05T06:47:17.217Z,23.90
2018-11-05T06:49:58.236Z,21.80
2018-11-05T06:52:26.997Z,22.90
2018-11-05T06:54:55.933Z,23.77
2018-11-05T06:57:24.651Z,22.40
2018-11-05T06:59:53.393Z,23.13
2018-11-05T07:02:22.359Z,26.60
2018-11-05T07:04:51.304Z,25.37
2018-11-05T07:07:20.300Z,30.10
2018-11-05T07:09:49.345Z,30.43
2018-11-05T07:12:17.989Z,28.63
2018-11-05T07:14:46.792Z,26.95
2018-11-05T07:17:15.504Z,31.07
2018-11-05T07:19:44.321Z,31.90
2018-11-05T07:22:13.395Z,32.17
2018-11-05T07:24:42.268Z,32.70
2018-11-05T07:27:10.999Z,34.60
2018-11-05T07:29:39.924Z,30.77
2018-11-05T07:32:08.682Z,30.50
2018-11-05T07:34:37.391Z,35.20
2018-11-05T07:37:06.096Z,34.13
2018-11-05T07:39:34.836Z,31.53
2018-11-05T07:42:03.555Z,33.43
2018-11-05T07:44:32.264Z,33.57
2018-11-05T07:47:01.007Z,29.73
2018-11-05T07:49:29.783Z,29.80
2018-11-05T07:51:58.484Z,27.50
2018-11-05T07:54:27.191Z,29.37
2018-11-05T07:56:56.058Z,30.23
2018-11-05T07:59:24.744Z,25.47
2018-11-05T08:01:53.483Z,35.47
2018-11-05T08:04:22.213Z,30.73
2018-11-05T08:06:51.209Z,33.33
2018-11-05T08:09:19.925Z,29.27
2018-11-05T08:11:48.636Z,31.83
2018-11-05T08:14:17.350Z,37.83
2018-11-05T08:16:46.058Z,34.37
2018-11-05T08:19:14.772Z,33.95
2018-11-05T08:21:43.484Z,34.13
2018-11-05T08:24:12.342Z,34.67
2018-11-05T08:26:41.040Z,36.10
2018-11-05T08:29:09.788Z,32.48
2018-11-05T08:31:38.496Z,36.00
2018-11-05T08:34:07.372Z,34.10
2018-11-05T08:36:36.950Z,34.90
2018-11-05T08:39:08.893Z,32.90
2018-11-05T08:41:37.592Z,38.40
2018-11-05T08:44:07.509Z,37.73
2018-11-05T08:46:36.471Z,36.80
2018-11-05T08:49:05.608Z,37.17
2018-11-05T08:51:34.641Z,39.83
2018-11-05T08:54:03.289Z,37.03
2018-11-05T08:56:31.994Z,36.57
2018-11-05T08:59:00.696Z,34.70
2018-11-05T09:01:33.101Z,38.67
2018-11-05T09:04:02.268Z,39.50
2018-11-05T09:06:30.971Z,34.10
2018-11-05T09:08:59.691Z,33.97
2018-11-05T09:11:29.030Z,34.17
2018-11-05T09:13:57.542Z,35.20
2018-11-05T09:16:26.549Z,32.67
2018-11-05T09:18:55.355Z,36.70
2018-11-05T09:21:24.071Z,33.13
2018-11-05T09:23:52.832Z,31.83
2018-11-05T09:26:21.560Z,37.07
2018-11-05T09:28:50.294Z,32.87
2018-11-05T09:31:19.015Z,34.13
2018-11-05T09:33:47.732Z,32.97
2018-11-05T09:36:16.740Z,36.03
2018-11-05T09:38:45.444Z,35.43
2018-11-05T09:41:14.149Z,34.50
2018-11-05T09:43:43.114Z,33.27
2018-11-05T09:46:11.858Z,37.88
2018-11-05T09:48:41.048Z,35.73
2018-11-05T09:51:10.142Z,34.13
2018-11-05T09:53:38.856Z,33.80
2018-11-05T09:56:07.604Z,35.07
2018-11-05T09:58:36.333Z,32.97
2018-11-05T10:01:06.071Z,33.80
2018-11-05T10:03:40.050Z,33.60
2018-11-05T10:06:08.549Z,31.97
2018-11-05T10:08:37.279Z,33.17
2018-11-05T10:11:06.159Z,31.33
2018-11-05T10:13:35.027Z,32.60
2018-11-05T10:16:03.733Z,33.27
2018-11-05T10:18:32.449Z,31.90
2018-11-05T10:21:01.224Z,34.27
2018-11-05T10:23:29.945Z,29.77
2018-11-05T10:25:58.661Z,33.13
2018-11-05T10:28:34.209Z,32.93
2018-11-05T10:31:02.934Z,32.07
2018-11-05T10:33:31.713Z,32.13
2018-11-05T10:36:00.386Z,33.27
2018-11-05T10:38:29.141Z,32.70
2018-11-05T10:40:57.814Z,31.27
2018-11-05T10:43:26.505Z,31.80
2018-11-05T10:45:55.231Z,31.90
2018-11-05T10:48:23.983Z,28.50
2018-11-05T10:50:52.742Z,29.83
2018-11-05T10:53:21.440Z,32.63
2018-11-05T10:55:50.161Z,31.07
2018-11-05T10:58:19.246Z,33.30
2018-11-05T11:00:53.151Z,32.20
2018-11-05T11:03:21.867Z,30.82
2018-11-05T11:05:50.613Z,29.00
2018-11-05T11:08:19.331Z,33.58
2018-11-05T11:10:48.047Z,30.87
2018-11-05T11:13:16.764Z,31.30
2018-11-05T11:15:45.497Z,30.10
2018-11-05T11:18:14.432Z,31.13
2018-11-05T11:20:43.178Z,29.90
2018-11-05T11:23:11.901Z,29.52
2018-11-05T11:25:40.684Z,29.57
2018-11-05T11:28:09.449Z,30.40
2018-11-05T11:30:38.129Z,29.17
2018-11-05T11:33:06.861Z,29.07
2018-11-05T11:35:35.567Z,30.43
2018-11-05T11:38:05.692Z,30.00
2018-11-05T11:40:34.407Z,29.93
2018-11-05T11:43:03.144Z,29.47
2018-11-05T11:45:31.945Z,29.00
2018-11-05T11:48:00.647Z,29.57
2018-11-05T11:50:29.413Z,31.40
2018-11-05T11:52:58.253Z,29.47
2018-11-05T11:55:26.883Z,29.93
2018-11-05T11:57:55.631Z,31.43
2018-11-05T12:00:25.473Z,30.17
2018-11-05T12:02:54.382Z,28.70
2018-11-05T12:05:23.324Z,30.83
2018-11-05T12:07:51.851Z,30.17
2018-11-05T12:10:22.304Z,29.00
2018-11-05T12:12:51.010Z,29.87
2018-11-05T12:15:20.678Z,27.20
2018-11-05T12:17:50.489Z,28.87
2018-11-05T12:20:20.565Z,27.50
2018-11-05T12:22:49.732Z,29.47
2018-11-05T12:25:18.451Z,28.37
2018-11-05T12:27:47.413Z,28.10
2018-11-05T12:30:19.119Z,28.87
2018-11-05T12:32:49.042Z,26.85
2018-11-05T12:35:17.737Z,29.30
2018-11-05T12:37:47.463Z,27.63
2018-11-05T12:40:17.300Z,27.50
2018-11-05T12:42:47.193Z,29.60
2018-11-05T12:45:15.912Z,29.57
2018-11-05T12:47:44.672Z,28.50
2018-11-05T12:50:15.813Z,29.52
2018-11-05T12:52:45.447Z,28.30
2018-11-05T12:55:14.180Z,29.17
2018-11-05T12:57:42.955Z,27.10
2018-11-05T13:00:15.853Z,27.58
2018-11-05T13:02:44.608Z,26.27
2018-11-05T13:05:14.009Z,27.37
2018-11-05T13:07:42.730Z,26.57
2018-11-05T13:10:12.500Z,26.73
2018-11-05T13:12:41.238Z,25.97
2018-11-05T13:15:10.728Z,25.87
2018-11-05T13:17:40.065Z,26.67
2018-11-05T13:20:17.643Z,26.97
2018-11-05T13:22:46.591Z,27.93
2018-11-05T13:25:15.343Z,25.93
2018-11-05T13:27:45.214Z,27.83
2018-11-05T13:30:14.395Z,27.33
2018-11-05T13:32:43.551Z,25.87
2018-11-05T13:35:19.786Z,27.40
2018-11-05T13:37:48.927Z,27.07
2018-11-05T13:40:18.505Z,27.37
2018-11-05T13:42:47.618Z,24.70
2018-11-05T13:45:16.707Z,26.07
2018-11-05T13:47:45.985Z,27.40
2018-11-05T13:50:14.733Z,27.13
2018-11-05T13:52:43.640Z,26.30
2018-11-05T13:55:13.413Z,26.10
2018-11-05T13:57:43.436Z,27.50
2018-11-05T14:00:15.673Z,27.33
2018-11-05T14:02:44.397Z,27.27
2018-11-05T14:05:13.365Z,27.58
2018-11-05T14:07:42.093Z,27.13
2018-11-05T14:10:13.980Z,27.50
2018-11-05T14:12:43.693Z,28.50
2018-11-05T14:15:12.321Z,27.98
2018-11-05T14:17:41.729Z,27.37
2018-11-05T14:20:11.494Z,27.60
2018-11-05T14:22:40.848Z,27.77
2018-11-05T14:25:12.051Z,27.83
2018-11-05T14:27:41.568Z,29.43
2018-11-05T14:30:11.644Z,30.00
2018-11-05T14:32:41.084Z,27.27
2018-11-05T14:35:09.822Z,27.50
2018-11-05T14:40:14.965Z,28.50
2018-11-05T14:42:43.741Z,26.63
2018-11-05T14:45:13.839Z,27.42
2018-11-05T14:47:43.499Z,25.37
2018-11-05T14:50:13.680Z,27.73
2018-11-05T14:52:42.379Z,27.80
2018-11-05T14:55:13.216Z,24.43
2018-11-05T14:57:42.568Z,28.43
2018-11-05T15:00:14.476Z,27.10
2018-11-05T15:02:43.899Z,26.13
2018-11-05T15:05:13.341Z,26.43
2018-11-05T15:07:42.877Z,28.13
2018-11-05T15:10:16.874Z,27.57
2018-11-05T15:12:45.715Z,25.13
2018-11-05T15:15:14.968Z,26.33
2018-11-05T15:17:44.248Z,29.97
2018-11-05T15:20:14.301Z,29.57
2018-11-05T15:22:42.794Z,30.33
2018-11-05T15:25:11.913Z,28.17
2018-11-05T15:27:40.918Z,28.90
2018-11-05T15:30:10.964Z,28.60
2018-11-05T15:32:40.396Z,29.43
2018-11-05T15:35:09.233Z,29.50
2018-11-05T15:37:38.754Z,28.10
2018-11-05T15:40:08.188Z,27.47
2018-11-05T15:42:36.962Z,28.10
2018-11-05T15:45:07.257Z,28.33
2018-11-05T15:47:35.996Z,29.13
2018-11-05T15:50:06.719Z,27.20
2018-11-05T15:52:37.107Z,27.77
2018-11-05T15:55:05.521Z,27.83
2018-11-05T15:57:34.500Z,27.40
2018-11-05T16:00:03.310Z,27.27
2018-11-05T16:02:32.289Z,26.63
2018-11-05T16:05:14.972Z,26.87
2018-11-05T16:07:43.729Z,25.03
2018-11-05T16:10:27.448Z,27.07
2018-11-05T16:12:56.156Z,25.63
2018-11-05T16:15:44.119Z,27.30
2018-11-05T16:18:12.881Z,20.20
2018-11-05T16:20:41.594Z,25.20
2018-11-05T16:23:10.324Z,24.35
2018-11-05T16:25:39.103Z,32.03
2018-11-05T16:28:07.771Z,31.83
2018-11-05T16:33:47.997Z,30.20
2018-11-05T16:39:27.286Z,28.83
2018-11-05T16:44:52.409Z,27.70
2018-11-05T16:47:43.000Z,30.30
2018-11-05T16:50:28.796Z,27.37
2018-11-05T16:53:11.347Z,30.07
2018-11-05T16:55:40.089Z,26.30
2018-11-05T16:58:09.084Z,27.27
2018-11-05T17:00:38.028Z,29.73
2018-11-05T17:03:07.027Z,28.17
2018-11-05T17:05:35.704Z,27.57
2018-11-05T17:08:05.629Z,28.92
2018-11-05T17:10:34.543Z,28.10
2018-11-05T17:13:05.233Z,30.10
2018-11-05T17:15:34.054Z,26.90
2018-11-05T17:18:03.023Z,30.23
2018-11-05T17:20:38.579Z,25.00
2018-11-05T17:23:07.301Z,26.03
2018-11-05T17:25:36.023Z,25.92
2018-11-05T17:28:05.235Z,25.80
2018-11-05T17:30:34.132Z,28.97
2018-11-05T17:33:03.134Z,27.53
2018-11-05T17:35:32.125Z,26.93
2018-11-05T17:38:00.857Z,25.08
2018-11-05T17:40:29.592Z,26.50
2018-11-05T17:42:58.328Z,27.33
2018-11-05T17:45:27.066Z,27.33
2018-11-05T17:47:55.781Z,31.27
2018-11-05T17:50:24.549Z,30.67
2018-11-05T17:52:53.263Z,30.97
2018-11-05T17:55:28.167Z,32.97
2018-11-05T17:57:57.045Z,34.47
2018-11-05T18:00:25.772Z,35.33
2018-11-05T18:02:54.737Z,35.70
2018-11-05T18:05:23.724Z,32.50
2018-11-05T18:07:52.458Z,31.03
2018-11-05T18:10:21.425Z,32.45
2018-11-05T18:12:50.999Z,33.87
2018-11-05T18:15:19.758Z,30.50
2018-11-05T18:17:48.488Z,31.50
2018-11-05T18:20:17.868Z,31.13
2018-11-05T18:22:46.588Z,38.97
2018-11-05T18:25:16.556Z,36.83
2018-11-05T18:27:45.397Z,36.10
2018-11-05T18:30:14.609Z,32.60
2018-11-05T18:32:43.572Z,33.03
2018-11-05T18:35:13.364Z,34.40
2018-11-05T18:37:44.324Z,42.03
2018-11-05T18:40:14.301Z,38.50
2018-11-05T18:42:43.916Z,39.20
2018-11-05T18:45:12.918Z,33.20
2018-11-05T18:47:41.989Z,38.57
2018-11-05T18:50:12.439Z,35.03
2018-11-05T18:52:41.213Z,34.60
2018-11-05T18:55:11.186Z,34.70
2018-11-05T18:57:40.122Z,34.90
2018-11-05T19:00:16.933Z,39.87
2018-11-05T19:02:46.336Z,36.93
2018-11-05T19:05:15.096Z,33.75
2018-11-05T19:07:43.837Z,32.87
2018-11-05T19:10:13.040Z,37.05
2018-11-05T19:12:41.863Z,32.50
2018-11-05T19:15:11.873Z,33.30
2018-11-05T19:17:40.792Z,38.03
2018-11-05T19:20:09.631Z,34.67
2018-11-05T19:22:39.212Z,36.17
2018-11-05T19:25:09.201Z,38.00
2018-11-05T19:27:38.509Z,40.27
2018-11-05T19:30:11.391Z,38.50
2018-11-05T19:32:40.645Z,39.20
2018-11-05T19:35:10.344Z,40.58
2018-11-05T19:37:40.396Z,41.87
2018-11-05T19:40:10.732Z,40.53
2018-11-05T19:42:40.540Z,41.07
2018-11-05T19:45:11.628Z,40.47
2018-11-05T19:47:40.620Z,35.23
2018-11-05T19:50:11.769Z,34.73
2018-11-05T19:52:41.817Z,35.73
2018-11-05T19:55:11.811Z,34.33
2018-11-05T19:57:41.692Z,35.57
2018-11-05T20:00:16.637Z,41.30
2018-11-05T20:02:45.878Z,37.53
2018-11-05T20:05:15.222Z,34.73
2018-11-05T20:07:44.600Z,35.17
2018-11-05T20:10:15.272Z,35.95
2018-11-05T20:12:45.035Z,32.77
2018-11-05T20:15:13.808Z,31.67
2018-11-05T20:17:43.647Z,32.07
2018-11-05T20:20:13.684Z,31.43
2018-11-05T20:22:42.500Z,31.30
2018-11-05T20:25:11.834Z,35.68
2018-11-05T20:27:41.207Z,35.13
2018-11-05T20:30:16.347Z,36.70
2018-11-05T20:32:46.935Z,33.13
2018-11-05T20:35:15.344Z,33.53
2018-11-05T20:37:44.060Z,33.53
2018-11-05T20:40:15.066Z,32.40
2018-11-05T20:42:45.046Z,31.47
2018-11-05T20:45:14.169Z,38.60
2018-11-05T20:47:43.170Z,40.05
2018-11-05T20:50:13.009Z,37.57
2018-11-05T20:52:41.777Z,34.03
2018-11-05T20:55:11.819Z,33.63
2018-11-05T20:57:41.043Z,36.00
2018-11-05T21:00:11.289Z,41.97
2018-11-05T21:02:41.147Z,37.77
2018-11-05T21:05:09.869Z,35.95
2018-11-05T21:07:39.091Z,35.63
2018-11-05T21:10:09.240Z,33.57
2018-11-05T21:12:38.464Z,34.23
2018-11-05T21:15:08.057Z,35.93
2018-11-05T21:17:36.792Z,36.10
2018-11-05T21:20:05.569Z,35.37
2018-11-05T21:22:34.341Z,36.30
2018-11-05T21:25:03.312Z,35.87
2018-11-05T21:27:32.034Z,38.67
2018-11-05T21:30:00.781Z,40.40
2018-11-05T21:32:29.519Z,40.13
2018-11-05T21:34:58.745Z,37.63
2018-11-05T21:37:27.659Z,36.50
2018-11-05T21:39:56.387Z,33.47
2018-11-05T21:42:25.329Z,35.67
2018-11-05T21:44:54.034Z,36.27
2018-11-05T21:47:22.770Z,35.17
2018-11-05T21:49:51.462Z,34.90
2018-11-05T21:52:20.168Z,37.60
2018-11-05T21:54:49.368Z,34.93
2018-11-05T21:57:18.157Z,33.30
2018-11-05T21:59:46.859Z,33.43
2018-11-05T22:02:15.593Z,33.70
2018-11-05T22:04:44.345Z,35.17
2018-11-05T22:07:13.051Z,32.45
2018-11-05T22:09:41.788Z,32.00
2018-11-05T22:12:10.493Z,33.67
2018-11-05T22:14:39.469Z,32.50
2018-11-05T22:17:08.205Z,31.60
2018-11-05T22:19:36.900Z,34.37
2018-11-05T22:22:05.624Z,31.20
2018-11-05T22:24:34.349Z,33.93
2018-11-05T22:27:03.445Z,33.67
2018-11-05T22:29:32.144Z,31.80
2018-11-05T22:32:00.869Z,31.03
2018-11-05T22:34:29.884Z,30.53
2018-11-05T22:36:58.611Z,31.53
2018-11-05T22:39:27.298Z,32.03
2018-11-05T22:41:56.012Z,33.13
2018-11-05T22:44:24.933Z,33.47
2018-11-05T22:46:53.674Z,34.13
2018-11-05T22:49:22.423Z,30.40
2018-11-05T22:51:51.116Z,31.40
2018-11-05T22:54:19.831Z,30.65
2018-11-05T22:56:48.523Z,32.27
2018-11-05T23:02:28.288Z,31.77
2018-11-05T23:04:57.021Z,32.37
2018-11-05T23:07:25.930Z,33.50
2018-11-05T23:09:54.656Z,29.47
2018-11-05T23:12:23.608Z,30.43
2018-11-05T23:14:59.007Z,29.63
2018-11-05T23:17:27.724Z,27.83
2018-11-05T23:19:56.435Z,30.23
2018-11-05T23:22:25.127Z,29.00
2018-11-05T23:24:53.852Z,26.80
2018-11-05T23:27:22.584Z,27.10
2018-11-05T23:29:51.307Z,31.50
2018-11-05T23:32:20.308Z,27.40
2018-11-05T23:34:49.020Z,27.40
2018-11-05T23:37:17.724Z,28.02
2018-11-05T23:39:46.699Z,26.63
2018-11-05T23:42:15.416Z,26.75
2018-11-05T23:44:44.145Z,25.63
2018-11-05T23:47:12.856Z,29.30
2018-11-05T23:49:41.562Z,26.27
2018-11-05T23:52:10.384Z,25.70
2018-11-05T23:54:39.026Z,24.50
2018-11-05T23:57:07.731Z,25.80
2018-11-05T23:59:36.448Z,27.10
